sensor_id;sensor_type;location;lat;lon;timestamp;pressure;altitude;pressure_sealevel;temperature;humidity
49515;BME280;35415;47.870;16.058;2023-03-26T00:02:17;96664.00;;;7.82;67.02
49515;BME280;35415;47.870;16.058;2023-03-26T00:04:48;96625.94;;;7.60;66.91
49515;BME280;35415;47.870;16.058;2023-03-26T00:07:20;96615.19;;;7.54;66.71
49515;BME280;35415;47.870;16.058;2023-03-26T00:09:59;96614.66;;;7.52;66.76
49515;BME280;35415;47.870;16.058;2023-03-26T00:12:40;96603.97;;;7.52;66.62
49515;BME280;35415;47.870;16.058;2023-03-26T00:15:28;96695.91;;;8.04;66.63
49515;BME280;35415;47.870;16.058;2023-03-26T00:17:59;96674.47;;;7.99;66.32
49515;BME280;35415;47.870;16.058;2023-03-26T00:20:29;96650.88;;;7.85;66.59
49515;BME280;35415;47.870;16.058;2023-03-26T00:22:58;96669.13;;;7.94;66.44
49515;BME280;35415;47.870;16.058;2023-03-26T00:25:27;96699.41;;;8.20;66.48
49515;BME280;35415;47.870;16.058;2023-03-26T00:28:08;96675.03;;;8.11;66.01
49515;BME280;35415;47.870;16.058;2023-03-26T00:31:23;96616.06;;;7.75;65.89
49515;BME280;35415;47.870;16.058;2023-03-26T00:33:53;96643.69;;;7.96;65.85
49515;BME280;35415;47.870;16.058;2023-03-26T00:36:24;96608.31;;;7.79;65.48
49515;BME280;35415;47.870;16.058;2023-03-26T00:38:56;96651.47;;;8.13;65.59
49515;BME280;35415;47.870;16.058;2023-03-26T00:41:24;96642.34;;;8.04;65.08
49515;BME280;35415;47.870;16.058;2023-03-26T00:44:01;96622.25;;;7.96;64.78
49515;BME280;35415;47.870;16.058;2023-03-26T00:46:34;96665.97;;;8.37;65.40
49515;BME280;35415;47.870;16.058;2023-03-26T00:49:03;96598.41;;;7.84;64.93
49515;BME280;35415;47.870;16.058;2023-03-26T00:51:33;96631.13;;;8.07;64.89
49515;BME280;35415;47.870;16.058;2023-03-26T00:54:03;96658.72;;;8.28;64.46
49515;BME280;35415;47.870;16.058;2023-03-26T00:56:32;96635.13;;;8.09;64.95
49515;BME280;35415;47.870;16.058;2023-03-26T00:59:04;96671.31;;;8.27;65.10
49515;BME280;35415;47.870;16.058;2023-03-26T01:01:33;96673.72;;;8.29;64.73
49515;BME280;35415;47.870;16.058;2023-03-26T01:04:24;96709.94;;;8.62;65.03
49515;BME280;35415;47.870;16.058;2023-03-26T01:06:56;96629.78;;;8.09;64.92
49515;BME280;35415;47.870;16.058;2023-03-26T01:09:29;96668.66;;;8.42;64.60
49515;BME280;35415;47.870;16.058;2023-03-26T01:12:03;96683.41;;;8.45;64.19
49515;BME280;35415;47.870;16.058;2023-03-26T01:14:33;96615.84;;;8.07;63.79
49515;BME280;35415;47.870;16.058;2023-03-26T01:17:05;96615.03;;;8.07;65.18
49515;BME280;35415;47.870;16.058;2023-03-26T01:19:38;96572.44;;;7.90;64.45
49515;BME280;35415;47.870;16.058;2023-03-26T01:22:12;96672.66;;;8.65;64.46
49515;BME280;35415;47.870;16.058;2023-03-26T01:24:42;96581.28;;;8.11;63.82
49515;BME280;35415;47.870;16.058;2023-03-26T01:27:30;96589.03;;;8.02;64.23
49515;BME280;35415;47.870;16.058;2023-03-26T01:30:09;96570.03;;;7.99;64.00
49515;BME280;35415;47.870;16.058;2023-03-26T01:32:58;96602.44;;;8.23;64.02
49515;BME280;35415;47.870;16.058;2023-03-26T01:35:36;96539.50;;;7.84;63.64
49515;BME280;35415;47.870;16.058;2023-03-26T01:38:15;96573.53;;;8.09;63.69
49515;BME280;35415;47.870;16.058;2023-03-26T01:41:10;96622.56;;;8.61;63.84
49515;BME280;35415;47.870;16.058;2023-03-26T01:43:49;96579.41;;;8.17;63.36
49515;BME280;35415;47.870;16.058;2023-03-26T01:46:39;96562.28;;;8.12;63.27
49515;BME280;35415;47.870;16.058;2023-03-26T01:49:26;96646.13;;;8.79;63.13
49515;BME280;35415;47.870;16.058;2023-03-26T01:52:13;96548.59;;;8.19;62.90
49515;BME280;35415;47.870;16.058;2023-03-26T01:55:14;96594.41;;;8.48;63.63
49515;BME280;35415;47.870;16.058;2023-03-26T01:58:03;96652.00;;;8.86;63.39
49515;BME280;35415;47.870;16.058;2023-03-26T02:00:41;96585.56;;;8.58;63.60
49515;BME280;35415;47.870;16.058;2023-03-26T02:03:24;96506.03;;;7.97;63.31
49515;BME280;35415;47.870;16.058;2023-03-26T02:06:18;96529.06;;;8.13;63.34
49515;BME280;35415;47.870;16.058;2023-03-26T02:08:51;96529.84;;;8.14;63.31
49515;BME280;35415;47.870;16.058;2023-03-26T02:11:20;96579.94;;;8.49;63.22
49515;BME280;35415;47.870;16.058;2023-03-26T02:13:50;96512.72;;;8.15;63.39
49515;BME280;35415;47.870;16.058;2023-03-26T02:16:19;96525.00;;;8.21;63.35
49515;BME280;35415;47.870;16.058;2023-03-26T02:18:47;96534.94;;;8.36;62.89
49515;BME280;35415;47.870;16.058;2023-03-26T02:21:22;96588.22;;;8.68;63.07
49515;BME280;35415;47.870;16.058;2023-03-26T02:24:00;96583.38;;;8.75;62.74
49515;BME280;35415;47.870;16.058;2023-03-26T02:26:36;96543.78;;;8.41;62.32
49515;BME280;35415;47.870;16.058;2023-03-26T02:29:05;96576.72;;;8.62;62.51
49515;BME280;35415;47.870;16.058;2023-03-26T02:31:33;96562.78;;;8.60;63.07
49515;BME280;35415;47.870;16.058;2023-03-26T02:34:03;96578.81;;;8.70;62.42
49515;BME280;35415;47.870;16.058;2023-03-26T02:36:31;96520.47;;;8.37;61.65
49515;BME280;35415;47.870;16.058;2023-03-26T02:39:00;96541.38;;;8.40;62.43
49515;BME280;35415;47.870;16.058;2023-03-26T02:41:33;96529.06;;;8.24;61.98
49515;BME280;35415;47.870;16.058;2023-03-26T02:44:05;96540.81;;;8.38;62.07
49515;BME280;35415;47.870;16.058;2023-03-26T02:46:33;96685.19;;;9.16;62.29
49515;BME280;35415;47.870;16.058;2023-03-26T02:49:05;96576.44;;;8.54;62.48
49515;BME280;35415;47.870;16.058;2023-03-26T02:51:33;96607.50;;;8.80;62.46
49515;BME280;35415;47.870;16.058;2023-03-26T02:54:04;96579.91;;;8.69;62.75
49515;BME280;35415;47.870;16.058;2023-03-26T02:56:34;96627.59;;;8.88;63.28
49515;BME280;35415;47.870;16.058;2023-03-26T02:59:07;96584.47;;;8.64;63.62
49515;BME280;35415;47.870;16.058;2023-03-26T03:01:35;96586.59;;;8.67;63.71
49515;BME280;35415;47.870;16.058;2023-03-26T03:04:07;96548.06;;;8.48;64.11
49515;BME280;35415;47.870;16.058;2023-03-26T03:06:41;96598.16;;;8.57;64.41
49515;BME280;35415;47.870;16.058;2023-03-26T03:09:12;96543.22;;;8.29;65.00
49515;BME280;35415;47.870;16.058;2023-03-26T03:11:49;96583.16;;;8.51;64.59
49515;BME280;35415;47.870;16.058;2023-03-26T03:14:23;96601.38;;;8.54;64.74
49515;BME280;35415;47.870;16.058;2023-03-26T03:16:51;96572.47;;;8.41;64.95
49515;BME280;35415;47.870;16.058;2023-03-26T03:19:21;96569.47;;;8.32;65.04
49515;BME280;35415;47.870;16.058;2023-03-26T03:21:48;96645.84;;;8.81;65.09
49515;BME280;35415;47.870;16.058;2023-03-26T03:24:15;96610.75;;;8.52;65.39
49515;BME280;35415;47.870;16.058;2023-03-26T03:26:44;96668.59;;;8.88;65.17
49515;BME280;35415;47.870;16.058;2023-03-26T03:29:12;96584.78;;;8.27;65.41
49515;BME280;35415;47.870;16.058;2023-03-26T03:31:42;96640.22;;;8.67;65.40
49515;BME280;35415;47.870;16.058;2023-03-26T03:34:12;96561.22;;;8.08;65.64
49515;BME280;35415;47.870;16.058;2023-03-26T03:36:40;96547.00;;;8.03;66.00
49515;BME280;35415;47.870;16.058;2023-03-26T03:39:08;96591.72;;;8.23;65.94
49515;BME280;35415;47.870;16.058;2023-03-26T03:41:36;96562.53;;;8.16;65.43
49515;BME280;35415;47.870;16.058;2023-03-26T03:44:06;96587.75;;;8.40;65.57
49515;BME280;35415;47.870;16.058;2023-03-26T03:46:33;96597.63;;;8.35;65.52
49515;BME280;35415;47.870;16.058;2023-03-26T03:49:04;96607.28;;;8.36;65.21
49515;BME280;35415;47.870;16.058;2023-03-26T03:51:32;96635.16;;;8.60;65.45
49515;BME280;35415;47.870;16.058;2023-03-26T03:53:59;96588.00;;;8.34;66.05
49515;BME280;35415;47.870;16.058;2023-03-26T03:56:28;96631.13;;;8.53;66.01
49515;BME280;35415;47.870;16.058;2023-03-26T03:58:56;96624.44;;;8.50;65.66
49515;BME280;35415;47.870;16.058;2023-03-26T04:01:24;96668.38;;;8.80;65.88
49515;BME280;35415;47.870;16.058;2023-03-26T04:04:01;96570.03;;;8.19;65.61
49515;BME280;35415;47.870;16.058;2023-03-26T04:06:32;96637.81;;;8.65;65.50
49515;BME280;35415;47.870;16.058;2023-03-26T04:09:11;96620.41;;;8.53;65.29
49515;BME280;35415;47.870;16.058;2023-03-26T04:11:51;96554.78;;;8.09;65.18
49515;BME280;35415;47.870;16.058;2023-03-26T04:14:21;96522.09;;;7.92;65.46
49515;BME280;35415;47.870;16.058;2023-03-26T04:16:48;96589.59;;;8.35;65.03
49515;BME280;35415;47.870;16.058;2023-03-26T04:19:16;96661.41;;;8.73;65.02
49515;BME280;35415;47.870;16.058;2023-03-26T04:21:48;96640.50;;;8.65;65.12
49515;BME280;35415;47.870;16.058;2023-03-26T04:24:17;96573.22;;;8.21;64.98
49515;BME280;35415;47.870;16.058;2023-03-26T04:26:47;96545.38;;;8.02;64.82
49515;BME280;35415;47.870;16.058;2023-03-26T04:29:16;96549.94;;;8.11;64.88
49515;BME280;35415;47.870;16.058;2023-03-26T04:31:49;96635.69;;;8.52;64.94
49515;BME280;35415;47.870;16.058;2023-03-26T04:34:20;96601.41;;;8.34;65.20
49515;BME280;35415;47.870;16.058;2023-03-26T04:36:51;96604.06;;;8.34;64.65
49515;BME280;35415;47.870;16.058;2023-03-26T04:39:20;96551.53;;;8.02;64.77
49515;BME280;35415;47.870;16.058;2023-03-26T04:41:49;96536.84;;;7.95;64.68
49515;BME280;35415;47.870;16.058;2023-03-26T04:44:19;96593.59;;;8.32;64.68
49515;BME280;35415;47.870;16.058;2023-03-26T04:46:48;96590.38;;;8.20;64.38
49515;BME280;35415;47.870;16.058;2023-03-26T04:49:17;96602.44;;;8.28;64.81
49515;BME280;35415;47.870;16.058;2023-03-26T04:51:45;96598.69;;;8.19;65.24
49515;BME280;35415;47.870;16.058;2023-03-26T04:54:17;96574.84;;;8.12;64.96
49515;BME280;35415;47.870;16.058;2023-03-26T04:56:48;96662.75;;;8.76;64.56
49515;BME280;35415;47.870;16.058;2023-03-26T04:59:18;96587.19;;;8.13;65.26
49515;BME280;35415;47.870;16.058;2023-03-26T05:01:50;96566.53;;;8.03;66.31
49515;BME280;35415;47.870;16.058;2023-03-26T05:04:18;96625.25;;;8.35;67.08
49515;BME280;35415;47.870;16.058;2023-03-26T05:06:48;96527.19;;;7.73;66.78
49515;BME280;35415;47.870;16.058;2023-03-26T05:09:18;96624.66;;;8.18;66.25
49515;BME280;35415;47.870;16.058;2023-03-26T05:11:46;96589.03;;;8.02;67.29
49515;BME280;35415;47.870;16.058;2023-03-26T05:14:15;96628.97;;;8.19;67.05
49515;BME280;35415;47.870;16.058;2023-03-26T05:16:43;96516.44;;;7.48;67.33
49515;BME280;35415;47.870;16.058;2023-03-26T05:19:12;96596.28;;;7.92;68.27
49515;BME280;35415;47.870;16.058;2023-03-26T05:21:40;96585.28;;;7.78;68.06
49515;BME280;35415;47.870;16.058;2023-03-26T05:24:08;96560.63;;;7.61;68.42
49515;BME280;35415;47.870;16.058;2023-03-26T05:26:40;96606.69;;;7.88;69.18
49515;BME280;35415;47.870;16.058;2023-03-26T05:29:10;96564.91;;;7.57;69.49
49515;BME280;35415;47.870;16.058;2023-03-26T05:31:40;96583.38;;;7.58;69.40
49515;BME280;35415;47.870;16.058;2023-03-26T05:34:16;96601.59;;;7.61;70.41
49515;BME280;35415;47.870;16.058;2023-03-26T05:36:49;96633.97;;;7.70;70.40
49515;BME280;35415;47.870;16.058;2023-03-26T05:39:17;96605.28;;;7.55;71.54
49515;BME280;35415;47.870;16.058;2023-03-26T05:41:54;96566.72;;;7.26;71.38
49515;BME280;35415;47.870;16.058;2023-03-26T05:44:22;96587.59;;;7.39;71.53
49515;BME280;35415;47.870;16.058;2023-03-26T05:46:50;96611.97;;;7.52;70.90
49515;BME280;35415;47.870;16.058;2023-03-26T05:49:17;96637.72;;;7.59;72.17
49515;BME280;35415;47.870;16.058;2023-03-26T05:51:51;96628.56;;;7.54;72.11
49515;BME280;35415;47.870;16.058;2023-03-26T05:54:21;96616.25;;;7.43;71.44
49515;BME280;35415;47.870;16.058;2023-03-26T05:56:55;96557.56;;;7.06;71.96
49515;BME280;35415;47.870;16.058;2023-03-26T05:59:23;96616.47;;;7.37;72.06
49515;BME280;35415;47.870;16.058;2023-03-26T06:01:50;96641.41;;;7.47;72.63
49515;BME280;35415;47.870;16.058;2023-03-26T06:04:24;96600.69;;;7.30;72.34
49515;BME280;35415;47.870;16.058;2023-03-26T06:06:55;96615.69;;;7.36;72.44
49515;BME280;35415;47.870;16.058;2023-03-26T06:10:46;96603.38;;;7.30;73.79
49515;BME280;35415;47.870;16.058;2023-03-26T06:13:25;96695.63;;;7.90;72.83
49515;BME280;35415;47.870;16.058;2023-03-26T06:15:56;96625.88;;;7.44;75.58
49515;BME280;35415;47.870;16.058;2023-03-26T06:18:24;96540.66;;;6.96;74.05
49515;BME280;35415;47.870;16.058;2023-03-26T06:20:52;96582.75;;;7.26;74.26
49515;BME280;35415;47.870;16.058;2023-03-26T06:23:19;96686.25;;;7.93;74.78
49515;BME280;35415;47.870;16.058;2023-03-26T06:25:51;96671.00;;;7.93;75.54
49515;BME280;35415;47.870;16.058;2023-03-26T06:28:20;96638.25;;;7.66;74.20
49515;BME280;35415;47.870;16.058;2023-03-26T06:30:49;96610.13;;;7.53;71.95
49515;BME280;35415;47.870;16.058;2023-03-26T06:33:19;96567.03;;;7.39;71.48
49515;BME280;35415;47.870;16.058;2023-03-26T06:35:47;96640.69;;;7.88;72.77
49515;BME280;35415;47.870;16.058;2023-03-26T06:38:14;96657.91;;;8.07;73.42
49515;BME280;35415;47.870;16.058;2023-03-26T06:40:42;96598.94;;;7.76;72.80
49515;BME280;35415;47.870;16.058;2023-03-26T06:43:11;96555.81;;;7.58;71.29
49515;BME280;35415;47.870;16.058;2023-03-26T06:45:39;96622.28;;;8.06;68.78
49515;BME280;35415;47.870;16.058;2023-03-26T06:48:23;96656.63;;;8.40;69.24
49515;BME280;35415;47.870;16.058;2023-03-26T06:50:50;96661.41;;;8.48;69.21
49515;BME280;35415;47.870;16.058;2023-03-26T06:53:22;96657.94;;;8.63;69.35
49515;BME280;35415;47.870;16.058;2023-03-26T06:55:51;96646.94;;;8.64;68.29
49515;BME280;35415;47.870;16.058;2023-03-26T06:58:22;96636.22;;;8.59;65.94
49515;BME280;35415;47.870;16.058;2023-03-26T07:00:51;96677.19;;;9.00;66.63
49515;BME280;35415;47.870;16.058;2023-03-26T07:03:19;96623.88;;;8.79;63.91
49515;BME280;35415;47.870;16.058;2023-03-26T07:05:48;96640.41;;;9.06;63.27
49515;BME280;35415;47.870;16.058;2023-03-26T07:08:15;96646.56;;;9.17;64.34
49515;BME280;35415;47.870;16.058;2023-03-26T07:10:43;96691.78;;;9.59;62.07
49515;BME280;35415;47.870;16.058;2023-03-26T07:13:11;96589.97;;;9.13;60.95
49515;BME280;35415;47.870;16.058;2023-03-26T07:15:39;96628.78;;;9.41;59.69
49515;BME280;35415;47.870;16.058;2023-03-26T07:18:07;96653.31;;;9.69;59.45
49515;BME280;35415;47.870;16.058;2023-03-26T07:20:36;96645.25;;;9.69;60.44
49515;BME280;35415;47.870;16.058;2023-03-26T07:23:06;96598.91;;;9.53;59.10
49515;BME280;35415;47.870;16.058;2023-03-26T07:25:34;96619.97;;;9.80;57.86
49515;BME280;35415;47.870;16.058;2023-03-26T07:28:10;96653.91;;;10.10;57.30
49515;BME280;35415;47.870;16.058;2023-03-26T07:30:48;96603.78;;;9.90;57.27
49515;BME280;35415;47.870;16.058;2023-03-26T07:33:24;96600.50;;;9.98;55.48
49515;BME280;35415;47.870;16.058;2023-03-26T07:36:00;96612.78;;;10.09;55.48
49515;BME280;35415;47.870;16.058;2023-03-26T07:38:41;96592.38;;;10.08;56.16
49515;BME280;35415;47.870;16.058;2023-03-26T07:41:17;96618.56;;;10.32;56.84
49515;BME280;35415;47.870;16.058;2023-03-26T07:44:04;96625.34;;;10.53;56.76
49515;BME280;35415;47.870;16.058;2023-03-26T07:46:37;96610.03;;;10.53;55.57
49515;BME280;35415;47.870;16.058;2023-03-26T07:49:08;96568.75;;;10.39;55.17
49515;BME280;35415;47.870;16.058;2023-03-26T07:51:39;96579.34;;;10.60;54.45
49515;BME280;35415;47.870;16.058;2023-03-26T07:54:10;96554.34;;;10.54;52.27
49515;BME280;35415;47.870;16.058;2023-03-26T07:56:46;96623.25;;;11.03;51.15
49515;BME280;35415;47.870;16.058;2023-03-26T07:59:56;96652.19;;;11.40;52.66
49515;BME280;35415;47.870;16.058;2023-03-26T08:03:25;96571.91;;;10.99;50.94
49515;BME280;35415;47.870;16.058;2023-03-26T08:10:25;96574.66;;;11.37;51.42
49515;BME280;35415;47.870;16.058;2023-03-26T08:13:20;96526.56;;;11.11;49.24
49515;BME280;35415;47.870;16.058;2023-03-26T08:16:09;96575.06;;;11.49;48.42
49515;BME280;35415;47.870;16.058;2023-03-26T08:25:25;96568.81;;;11.91;49.00
49515;BME280;35415;47.870;16.058;2023-03-26T08:28:03;96556.53;;;11.85;47.56
49515;BME280;35415;47.870;16.058;2023-03-26T08:30:37;96608.25;;;12.39;45.33
49515;BME280;35415;47.870;16.058;2023-03-26T08:33:11;96532.63;;;11.97;46.15
49515;BME280;35415;47.870;16.058;2023-03-26T08:35:41;96490.84;;;11.81;44.46
49515;BME280;35415;47.870;16.058;2023-03-26T08:38:09;96529.03;;;12.02;44.19
49515;BME280;35415;47.870;16.058;2023-03-26T08:44:09;96493.63;;;12.09;45.33
49515;BME280;35415;47.870;16.058;2023-03-26T08:50:06;96598.78;;;12.87;44.65
49515;BME280;35415;47.870;16.058;2023-03-26T08:53:08;96508.16;;;12.40;45.40
49515;BME280;35415;47.870;16.058;2023-03-26T08:56:05;96512.09;;;12.61;44.16
49515;BME280;35415;47.870;16.058;2023-03-26T09:02:13;96535.41;;;12.99;42.45
49515;BME280;35415;47.870;16.058;2023-03-26T09:05:38;96512.72;;;13.00;41.17
49515;BME280;35415;47.870;16.058;2023-03-26T09:08:42;96544.41;;;13.21;41.38
49515;BME280;35415;47.870;16.058;2023-03-26T09:11:41;96539.63;;;13.32;41.62
49515;BME280;35415;47.870;16.058;2023-03-26T09:14:45;96421.06;;;12.53;40.20
49515;BME280;35415;47.870;16.058;2023-03-26T09:27:06;96455.19;;;13.13;39.23
49515;BME280;35415;47.870;16.058;2023-03-26T09:33:28;96404.63;;;12.91;39.58
49515;BME280;35415;47.870;16.058;2023-03-26T09:36:17;96400.34;;;12.90;39.91
49515;BME280;35415;47.870;16.058;2023-03-26T09:38:51;96439.91;;;13.22;38.52
49515;BME280;35415;47.870;16.058;2023-03-26T09:41:34;96387.44;;;13.01;37.91
49515;BME280;35415;47.870;16.058;2023-03-26T09:50:23;96477.97;;;13.93;41.07
49515;BME280;35415;47.870;16.058;2023-03-26T10:00:20;96404.94;;;13.62;39.89
49515;BME280;35415;47.870;16.058;2023-03-26T10:03:39;96345.50;;;13.39;39.32
49515;BME280;35415;47.870;16.058;2023-03-26T10:10:27;96338.63;;;13.55;40.54
49515;BME280;35415;47.870;16.058;2023-03-26T10:13:14;96409.00;;;14.04;40.84
49515;BME280;35415;47.870;16.058;2023-03-26T10:16:04;96436.78;;;14.27;42.07
49515;BME280;35415;47.870;16.058;2023-03-26T10:19:07;96337.22;;;13.89;42.64
49515;BME280;35415;47.870;16.058;2023-03-26T10:21:45;96417.69;;;14.46;42.83
49515;BME280;35415;47.870;16.058;2023-03-26T10:24:47;96325.44;;;13.94;43.09
49515;BME280;35415;47.870;16.058;2023-03-26T10:28:28;96364.78;;;14.39;42.95
49515;BME280;35415;47.870;16.058;2023-03-26T10:43:49;96279.31;;;14.38;40.67
49515;BME280;35415;47.870;16.058;2023-03-26T10:54:32;96260.44;;;14.56;38.92
49515;BME280;35415;47.870;16.058;2023-03-26T10:56:53;96274.63;;;14.96;40.14
49515;BME280;35415;47.870;16.058;2023-03-26T11:07:23;96222.34;;;15.04;40.46
49515;BME280;35415;47.870;16.058;2023-03-26T11:10:13;96252.88;;;15.39;40.68
49515;BME280;35415;47.870;16.058;2023-03-26T11:12:55;96286.63;;;15.68;39.10
49515;BME280;35415;47.870;16.058;2023-03-26T11:15:28;96219.88;;;15.46;36.92
49515;BME280;35415;47.870;16.058;2023-03-26T11:18:07;96311.97;;;16.10;38.18
49515;BME280;35415;47.870;16.058;2023-03-26T11:20:46;96200.91;;;15.46;37.96
49515;BME280;35415;47.870;16.058;2023-03-26T11:23:47;96200.69;;;15.59;38.19
49515;BME280;35415;47.870;16.058;2023-03-26T11:26:27;96297.72;;;16.30;37.08
49515;BME280;35415;47.870;16.058;2023-03-26T11:29:33;96284.28;;;16.34;37.35
49515;BME280;35415;47.870;16.058;2023-03-26T11:32:44;96204.44;;;15.84;36.52
49515;BME280;35415;47.870;16.058;2023-03-26T11:35:23;96283.59;;;16.37;36.11
49515;BME280;35415;47.870;16.058;2023-03-26T11:38:21;96214.28;;;15.89;36.86
49515;BME280;35415;47.870;16.058;2023-03-26T11:41:22;96211.69;;;16.01;35.46
49515;BME280;35415;47.870;16.058;2023-03-26T11:44:07;96244.06;;;16.27;35.84
49515;BME280;35415;47.870;16.058;2023-03-26T11:46:42;96131.66;;;15.57;35.87
49515;BME280;35415;47.870;16.058;2023-03-26T11:49:47;96203.00;;;16.08;35.62
49515;BME280;35415;47.870;16.058;2023-03-26T11:52:16;96244.97;;;16.40;34.77
49515;BME280;35415;47.870;16.058;2023-03-26T11:54:44;96222.56;;;16.22;35.56
49515;BME280;35415;47.870;16.058;2023-03-26T11:57:18;96176.78;;;15.91;36.29
49515;BME280;35415;47.870;16.058;2023-03-26T11:59:51;96171.22;;;15.87;35.83
49515;BME280;35415;47.870;16.058;2023-03-26T12:02:24;96144.81;;;15.76;35.54
49515;BME280;35415;47.870;16.058;2023-03-26T12:08:16;96145.84;;;15.92;36.42
49515;BME280;35415;47.870;16.058;2023-03-26T12:29:28;96171.16;;;16.67;36.65
49515;BME280;35415;47.870;16.058;2023-03-26T12:43:27;96079.16;;;16.33;35.34
49515;BME280;35415;47.870;16.058;2023-03-26T12:45:56;96041.06;;;16.08;32.88
49515;BME280;35415;47.870;16.058;2023-03-26T12:48:25;96052.22;;;16.28;34.63
49515;BME280;35415;47.870;16.058;2023-03-26T12:51:06;96097.34;;;16.53;35.78
49515;BME280;35415;47.870;16.058;2023-03-26T12:53:52;96059.94;;;16.38;35.26
49515;BME280;35415;47.870;16.058;2023-03-26T12:56:29;96055.56;;;16.45;35.76
49515;BME280;35415;47.870;16.058;2023-03-26T12:59:19;96089.84;;;16.71;36.10
49515;BME280;35415;47.870;16.058;2023-03-26T13:01:56;96025.91;;;16.40;35.24
49515;BME280;35415;47.870;16.058;2023-03-26T13:04:47;96062.09;;;16.65;35.07
49515;BME280;35415;47.870;16.058;2023-03-26T13:07:26;96005.34;;;16.39;35.11
49515;BME280;35415;47.870;16.058;2023-03-26T13:13:46;96006.84;;;16.49;36.25
49515;BME280;35415;47.870;16.058;2023-03-26T13:19:26;96031.72;;;16.84;37.07
49515;BME280;35415;47.870;16.058;2023-03-26T13:22:16;96049.72;;;17.01;37.04
49515;BME280;35415;47.870;16.058;2023-03-26T13:24:54;96080.31;;;17.22;36.82
49515;BME280;35415;47.870;16.058;2023-03-26T13:27:35;96078.38;;;17.23;35.97
49515;BME280;35415;47.870;16.058;2023-03-26T13:30:28;96089.47;;;17.42;36.07
49515;BME280;35415;47.870;16.058;2023-03-26T13:33:15;96031.50;;;17.01;36.68
49515;BME280;35415;47.870;16.058;2023-03-26T13:36:02;96004.91;;;16.82;36.90
49515;BME280;35415;47.870;16.058;2023-03-26T13:43:17;95975.91;;;16.74;37.94
49515;BME280;35415;47.870;16.058;2023-03-26T13:45:59;96077.16;;;17.32;37.17
49515;BME280;35415;47.870;16.058;2023-03-26T13:48:53;96026.53;;;17.03;37.76
49515;BME280;35415;47.870;16.058;2023-03-26T13:51:28;96057.00;;;17.33;38.33
49515;BME280;35415;47.870;16.058;2023-03-26T13:54:01;96000.03;;;17.00;37.62
49515;BME280;35415;47.870;16.058;2023-03-26T13:56:38;95979.78;;;16.86;38.03
49515;BME280;35415;47.870;16.058;2023-03-26T13:59:13;95959.19;;;16.84;38.44
49515;BME280;35415;47.870;16.058;2023-03-26T14:01:46;95952.16;;;16.83;38.56
49515;BME280;35415;47.870;16.058;2023-03-26T14:04:22;95950.00;;;16.89;39.05
49515;BME280;35415;47.870;16.058;2023-03-26T14:07:04;95925.56;;;16.77;38.72
49515;BME280;35415;47.870;16.058;2023-03-26T14:09:39;95947.19;;;16.98;38.51
49515;BME280;35415;47.870;16.058;2023-03-26T14:12:25;95952.84;;;16.93;38.93
49515;BME280;35415;47.870;16.058;2023-03-26T14:14:59;95998.00;;;17.22;39.00
49515;BME280;35415;47.870;16.058;2023-03-26T14:17:35;95945.34;;;16.77;38.73
49515;BME280;35415;47.870;16.058;2023-03-26T14:20:27;95924.09;;;16.67;39.79
49515;BME280;35415;47.870;16.058;2023-03-26T14:23:37;95865.78;;;16.28;39.81
49515;BME280;35415;47.870;16.058;2023-03-26T14:26:19;95864.09;;;16.23;39.70
49515;BME280;35415;47.870;16.058;2023-03-26T14:32:11;95917.03;;;16.54;40.37
49515;BME280;35415;47.870;16.058;2023-03-26T14:35:15;95914.00;;;16.55;40.47
49515;BME280;35415;47.870;16.058;2023-03-26T14:41:18;95878.94;;;16.38;40.27
49515;BME280;35415;47.870;16.058;2023-03-26T14:44:21;95910.41;;;16.64;40.35
49515;BME280;35415;47.870;16.058;2023-03-26T14:47:13;95907.34;;;16.65;40.34
49515;BME280;35415;47.870;16.058;2023-03-26T14:50:19;95965.38;;;17.09;40.04
49515;BME280;35415;47.870;16.058;2023-03-26T14:52:53;95898.16;;;16.58;39.36
49515;BME280;35415;47.870;16.058;2023-03-26T14:55:48;95890.13;;;16.61;39.56
49515;BME280;35415;47.870;16.058;2023-03-26T14:58:52;95881.06;;;16.45;37.79
49515;BME280;35415;47.870;16.058;2023-03-26T15:01:57;95907.19;;;16.62;36.15
49515;BME280;35415;47.870;16.058;2023-03-26T15:05:03;95859.81;;;16.22;34.55
49515;BME280;35415;47.870;16.058;2023-03-26T15:07:59;95891.69;;;16.38;33.01
49515;BME280;35415;47.870;16.058;2023-03-26T15:11:10;95926.56;;;16.48;33.61
49515;BME280;35415;47.870;16.058;2023-03-26T15:14:02;95870.28;;;16.00;32.39
49515;BME280;35415;47.870;16.058;2023-03-26T15:17:12;95970.44;;;16.62;33.40
49515;BME280;35415;47.870;16.058;2023-03-26T15:23:34;95901.03;;;15.71;33.72
49515;BME280;35415;47.870;16.058;2023-03-26T15:32:49;95848.13;;;15.11;34.88
49515;BME280;35415;47.870;16.058;2023-03-26T15:36:01;95922.50;;;15.55;35.21
49515;BME280;35415;47.870;16.058;2023-03-26T15:38:52;95940.91;;;15.49;35.29
49515;BME280;35415;47.870;16.058;2023-03-26T15:41:33;95899.25;;;15.12;35.21
49515;BME280;35415;47.870;16.058;2023-03-26T15:44:27;95901.91;;;15.21;35.72
49515;BME280;35415;47.870;16.058;2023-03-26T15:50:14;95987.22;;;15.56;36.43
49515;BME280;35415;47.870;16.058;2023-03-26T15:52:47;95923.88;;;14.98;36.24
49515;BME280;35415;47.870;16.058;2023-03-26T15:55:26;95880.22;;;14.79;36.33
49515;BME280;35415;47.870;16.058;2023-03-26T15:58:07;95900.44;;;14.73;36.65
49515;BME280;35415;47.870;16.058;2023-03-26T16:00:55;95986.63;;;15.30;37.12
49515;BME280;35415;47.870;16.058;2023-03-26T16:03:52;95955.97;;;15.09;37.16
49515;BME280;35415;47.870;16.058;2023-03-26T16:06:48;95877.50;;;14.50;37.54
49515;BME280;35415;47.870;16.058;2023-03-26T16:13:53;95905.72;;;14.69;37.59
49515;BME280;35415;47.870;16.058;2023-03-26T16:20:30;95878.69;;;14.23;38.40
49515;BME280;35415;47.870;16.058;2023-03-26T16:23:28;95949.81;;;14.70;38.68
49515;BME280;35415;47.870;16.058;2023-03-26T16:29:25;95888.31;;;14.03;38.77
49515;BME280;35415;47.870;16.058;2023-03-26T16:32:57;95910.81;;;14.24;39.21